createdAt,value
2023-02-08T00:00:20.618Z,36.80
2023-02-08T00:01:20.576Z,37.10
2023-02-08T00:02:20.587Z,36.20
2023-02-08T00:03:20.552Z,37.80
2023-02-08T00:04:20.548Z,36.30
2023-02-08T00:05:20.531Z,35.30
2023-02-08T00:06:20.539Z,36.80
2023-02-08T00:07:20.516Z,36.50
2023-02-08T00:08:20.499Z,37.30
2023-02-08T00:09:20.489Z,37.40
2023-02-08T00:10:20.475Z,37.00
2023-02-08T00:11:20.452Z,36.80
2023-02-08T00:12:20.450Z,35.00
2023-02-08T00:13:20.429Z,36.50
2023-02-08T00:14:20.426Z,36.30
2023-02-08T00:15:20.404Z,37.50
2023-02-08T00:16:20.480Z,36.30
2023-02-08T00:17:20.370Z,35.40
2023-02-08T00:18:20.372Z,37.90
2023-02-08T00:19:20.367Z,36.50
2023-02-08T00:20:20.341Z,35.40
2023-02-08T00:21:20.355Z,36.20
2023-02-08T00:22:20.326Z,37.20
2023-02-08T00:23:20.310Z,36.20
2023-02-08T00:24:20.305Z,35.80
2023-02-08T00:25:20.320Z,37.60
2023-02-08T00:26:20.272Z,37.00
2023-02-08T00:27:20.309Z,35.90
2023-02-08T00:28:20.347Z,36.20
2023-02-08T00:29:20.232Z,39.80
2023-02-08T00:30:20.215Z,39.00
2023-02-08T00:31:20.266Z,36.90
2023-02-08T00:32:20.198Z,36.20
2023-02-08T00:33:20.161Z,37.20
2023-02-08T00:34:20.184Z,38.70
2023-02-08T00:35:20.164Z,39.20
2023-02-08T00:36:20.146Z,36.60
2023-02-08T00:37:20.149Z,39.30
2023-02-08T00:38:20.109Z,37.90
2023-02-08T00:39:20.095Z,38.00
2023-02-08T00:40:20.081Z,37.30
2023-02-08T00:41:20.098Z,37.30
2023-02-08T00:42:20.075Z,36.40
2023-02-08T00:43:20.087Z,38.10
2023-02-08T00:44:20.042Z,38.60
2023-02-08T00:45:20.053Z,37.20
2023-02-08T00:46:27.039Z,37.40
2023-02-08T00:47:19.998Z,36.60
2023-02-08T00:48:19.988Z,37.80
2023-02-08T00:49:19.996Z,38.00
2023-02-08T00:50:19.957Z,37.70
2023-02-08T00:51:19.957Z,38.00
2023-02-08T00:52:19.993Z,37.90
2023-02-08T00:53:19.923Z,37.90
2023-02-08T00:54:19.912Z,38.50
2023-02-08T00:55:19.910Z,37.20
2023-02-08T00:56:19.957Z,36.90
2023-02-08T00:57:19.861Z,37.60
2023-02-08T00:58:19.881Z,39.00
2023-02-08T00:59:19.869Z,38.90
2023-02-08T01:00:19.843Z,37.80
2023-02-08T01:01:19.850Z,37.40
2023-02-08T01:02:19.816Z,39.20
2023-02-08T01:03:19.810Z,38.30
2023-02-08T01:04:19.796Z,37.10
2023-02-08T01:05:19.763Z,38.00
2023-02-08T01:06:19.752Z,37.00
2023-02-08T01:07:19.752Z,39.30
2023-02-08T01:08:19.729Z,40.90
2023-02-08T01:09:19.723Z,38.80
2023-02-08T01:10:19.724Z,36.80
2023-02-08T01:11:19.690Z,36.60
2023-02-08T01:12:19.851Z,37.30
2023-02-08T01:13:19.694Z,37.80
2023-02-08T01:14:19.662Z,38.30
2023-02-08T01:15:19.640Z,38.50
2023-02-08T01:16:19.676Z,36.20
2023-02-08T01:17:19.610Z,37.00
2023-02-08T01:18:19.612Z,40.10
2023-02-08T01:19:19.615Z,38.10
2023-02-08T01:20:19.582Z,38.20
2023-02-08T01:21:19.573Z,37.40
2023-02-08T01:22:19.564Z,37.80
2023-02-08T01:23:19.538Z,38.10
2023-02-08T01:24:19.553Z,36.40
2023-02-08T01:25:19.533Z,36.30
2023-02-08T01:26:19.507Z,37.80
2023-02-08T01:27:19.503Z,37.40
2023-02-08T01:28:19.522Z,37.70
2023-02-08T01:29:19.472Z,37.70
2023-02-08T01:30:19.502Z,38.10
2023-02-08T01:31:19.481Z,37.60
2023-02-08T01:32:19.433Z,37.70
2023-02-08T01:33:19.424Z,37.40
2023-02-08T01:34:19.413Z,37.80
2023-02-08T01:35:19.422Z,39.20
2023-02-08T01:36:19.393Z,38.70
2023-02-08T01:37:19.387Z,38.10
2023-02-08T01:38:19.361Z,39.00
2023-02-08T01:39:19.355Z,37.90
2023-02-08T01:40:19.331Z,39.10
2023-02-08T01:41:19.341Z,37.70
2023-02-08T01:42:19.298Z,36.40
2023-02-08T01:43:19.296Z,36.70
2023-02-08T01:44:19.317Z,38.50
2023-02-08T01:45:19.280Z,37.70
2023-02-08T01:46:19.264Z,38.50
2023-02-08T01:47:19.246Z,38.50
2023-02-08T01:48:19.226Z,38.30
2023-02-08T01:49:19.231Z,37.60
2023-02-08T01:50:19.211Z,37.40
2023-02-08T01:51:19.199Z,38.30
2023-02-08T01:52:19.208Z,38.80
2023-02-08T01:53:19.179Z,38.30
2023-02-08T01:54:19.146Z,40.20
2023-02-08T01:55:19.161Z,39.80
2023-02-08T01:56:19.139Z,37.60
2023-02-08T01:57:19.123Z,38.40
2023-02-08T01:58:19.116Z,37.60
2023-02-08T01:59:19.085Z,38.30
2023-02-08T02:00:19.089Z,38.20
2023-02-08T02:01:19.111Z,39.10
2023-02-08T02:02:19.057Z,38.70
2023-02-08T02:03:19.035Z,37.50
2023-02-08T02:04:19.043Z,37.60
2023-02-08T02:05:19.014Z,36.40
2023-02-08T02:06:18.998Z,38.20
2023-02-08T02:07:19.004Z,37.40
2023-02-08T02:08:18.996Z,37.70
2023-02-08T02:09:18.980Z,39.50
2023-02-08T02:10:18.944Z,37.90
2023-02-08T02:11:18.944Z,40.40
2023-02-08T02:12:18.942Z,39.20
2023-02-08T02:13:18.934Z,38.30
2023-02-08T02:14:18.902Z,38.90
2023-02-08T02:15:18.892Z,39.90
2023-02-08T02:16:18.908Z,38.80
2023-02-08T02:17:18.908Z,38.70
2023-02-08T02:18:18.849Z,42.00
2023-02-08T02:19:18.850Z,38.10
2023-02-08T02:20:18.844Z,36.60
2023-02-08T02:21:18.827Z,39.00
2023-02-08T02:22:18.873Z,38.90
2023-02-08T02:23:18.811Z,38.00
2023-02-08T02:24:18.792Z,38.40
2023-02-08T02:25:18.761Z,37.50
2023-02-08T02:26:18.759Z,38.30
2023-02-08T02:27:18.770Z,39.20
2023-02-08T02:28:18.783Z,37.30
2023-02-08T02:29:18.739Z,39.20
2023-02-08T02:30:18.717Z,39.30
2023-02-08T02:31:18.742Z,36.80
2023-02-08T02:32:18.673Z,37.60
2023-02-08T02:33:18.673Z,40.30
2023-02-08T02:34:18.669Z,38.40
2023-02-08T02:35:18.667Z,38.60
2023-02-08T02:36:18.621Z,38.20
2023-02-08T02:37:18.611Z,37.00
2023-02-08T02:38:18.601Z,38.30
2023-02-08T02:39:18.604Z,36.80
2023-02-08T02:40:18.602Z,36.60
2023-02-08T02:41:18.568Z,38.80
2023-02-08T02:42:18.564Z,37.70
2023-02-08T02:43:18.558Z,38.60
2023-02-08T02:44:18.538Z,38.10
2023-02-08T02:45:18.535Z,39.10
2023-02-08T02:46:18.526Z,37.40
2023-02-08T02:47:18.493Z,37.40
2023-02-08T02:48:18.486Z,38.30
2023-02-08T02:49:18.473Z,37.20
2023-02-08T02:50:18.465Z,37.80
2023-02-08T02:51:18.477Z,37.20
2023-02-08T02:52:18.424Z,37.10
2023-02-08T02:53:18.438Z,37.10
2023-02-08T02:54:18.404Z,39.50
2023-02-08T02:55:18.396Z,37.00
2023-02-08T02:56:18.375Z,37.10
2023-02-08T02:57:18.385Z,38.40
2023-02-08T02:58:18.370Z,37.70
2023-02-08T02:59:18.348Z,37.00
2023-02-08T03:00:18.355Z,36.90
2023-02-08T03:01:18.354Z,36.70
2023-02-08T03:02:18.318Z,37.10
2023-02-08T03:03:18.308Z,38.20
2023-02-08T03:04:18.308Z,37.70
2023-02-08T03:05:18.276Z,39.90
2023-02-08T03:06:18.280Z,37.30
2023-02-08T03:07:18.254Z,37.90
2023-02-08T03:08:18.234Z,37.00
2023-02-08T03:09:18.239Z,36.00
2023-02-08T03:10:18.222Z,37.60
2023-02-08T03:11:18.205Z,37.90
2023-02-08T03:12:18.208Z,37.90
2023-02-08T03:13:18.175Z,37.20
2023-02-08T03:14:18.172Z,36.30
2023-02-08T03:15:18.154Z,36.80
2023-02-08T03:16:18.180Z,39.80
2023-02-08T03:17:18.149Z,37.80
2023-02-08T03:18:18.157Z,38.30
2023-02-08T03:19:18.119Z,36.40
2023-02-08T03:20:18.085Z,37.30
2023-02-08T03:21:18.088Z,37.30
2023-02-08T03:22:18.082Z,37.10
2023-02-08T03:23:18.054Z,38.00
2023-02-08T03:24:18.060Z,36.20
2023-02-08T03:25:18.050Z,36.40
2023-02-08T03:26:18.028Z,38.10
2023-02-08T03:27:18.024Z,38.40
2023-02-08T03:28:18.059Z,36.30
2023-02-08T03:29:17.975Z,39.20
2023-02-08T03:30:17.984Z,36.40
2023-02-08T03:31:18.072Z,37.20
2023-02-08T03:32:17.944Z,37.10
2023-02-08T03:33:17.935Z,36.60
2023-02-08T03:34:17.937Z,37.60
2023-02-08T03:35:17.927Z,38.30
2023-02-08T03:36:17.886Z,37.80
2023-02-08T03:37:17.884Z,37.70
2023-02-08T03:38:17.874Z,38.80
2023-02-08T03:39:17.879Z,37.50
2023-02-08T03:40:17.858Z,37.50
2023-02-08T03:41:17.834Z,37.90
2023-02-08T03:42:17.829Z,38.50
2023-02-08T03:43:17.848Z,39.20
2023-02-08T03:44:17.807Z,37.10
2023-02-08T03:45:17.798Z,37.30
2023-02-08T03:46:17.926Z,37.20
2023-02-08T03:47:17.766Z,37.70
2023-02-08T03:48:17.761Z,37.40
2023-02-08T03:49:17.747Z,36.30
2023-02-08T03:50:17.732Z,36.00
2023-02-08T03:51:17.712Z,37.70
2023-02-08T03:52:17.694Z,38.50
2023-02-08T03:53:17.696Z,39.80
2023-02-08T03:54:17.681Z,41.40
2023-02-08T03:55:17.675Z,39.50
2023-02-08T03:56:17.665Z,37.60
2023-02-08T03:57:17.633Z,37.70
2023-02-08T03:58:17.622Z,39.00
2023-02-08T03:59:17.630Z,39.90
2023-02-08T04:00:17.615Z,36.90
2023-02-08T04:01:17.615Z,38.30
2023-02-08T04:02:17.625Z,38.20
2023-02-08T04:03:17.579Z,36.70
2023-02-08T04:04:17.550Z,38.00
2023-02-08T04:05:17.555Z,38.40
2023-02-08T04:06:17.517Z,39.90
2023-02-08T04:07:17.509Z,37.20
2023-02-08T04:08:17.514Z,40.00
2023-02-08T04:09:17.493Z,37.70
2023-02-08T04:10:17.470Z,39.40
2023-02-08T04:11:17.456Z,36.90
2023-02-08T04:12:17.552Z,37.80
2023-02-08T04:13:17.458Z,37.00
2023-02-08T04:14:17.425Z,36.90
2023-02-08T04:15:17.419Z,36.80
2023-02-08T04:16:17.405Z,35.90
2023-02-08T04:17:17.393Z,35.40
2023-02-08T04:18:17.398Z,35.70
2023-02-08T04:19:17.407Z,37.70
2023-02-08T04:20:17.347Z,36.60
2023-02-08T04:21:17.357Z,39.00
2023-02-08T04:22:17.337Z,38.50
2023-02-08T04:23:17.329Z,36.90
2023-02-08T04:24:17.319Z,36.20
2023-02-08T04:25:17.309Z,36.20
2023-02-08T04:26:17.321Z,36.60
2023-02-08T04:27:17.283Z,41.50
2023-02-08T04:28:17.354Z,37.90
2023-02-08T04:29:17.249Z,39.20
2023-02-08T04:30:17.269Z,35.80
2023-02-08T04:31:17.345Z,37.30
2023-02-08T04:32:17.210Z,37.60
2023-02-08T04:33:17.203Z,39.20
2023-02-08T04:34:17.220Z,37.00
2023-02-08T04:35:17.170Z,36.30
2023-02-08T04:36:17.157Z,40.70
2023-02-08T04:37:17.148Z,37.10
2023-02-08T04:38:17.171Z,36.70
2023-02-08T04:39:17.124Z,37.20
2023-02-08T04:40:17.107Z,35.80
2023-02-08T04:41:17.114Z,36.80
2023-02-08T04:42:17.087Z,38.40
2023-02-08T04:43:17.081Z,38.70
2023-02-08T04:44:17.071Z,36.40
2023-02-08T04:45:17.062Z,36.00
2023-02-08T04:46:17.095Z,36.70
2023-02-08T04:47:17.043Z,37.00
2023-02-08T04:48:17.012Z,37.20
2023-02-08T04:49:17.011Z,36.60
2023-02-08T04:50:17.022Z,37.70
2023-02-08T04:51:16.969Z,38.70
2023-02-08T04:52:16.982Z,37.50
2023-02-08T04:53:16.987Z,37.20
2023-02-08T04:54:16.960Z,37.60
2023-02-08T04:55:16.929Z,39.10
2023-02-08T04:56:16.934Z,36.80
2023-02-08T04:57:16.901Z,37.90
2023-02-08T04:58:16.902Z,37.10
2023-02-08T04:59:16.911Z,37.60
2023-02-08T05:00:16.877Z,36.50
2023-02-08T05:01:16.903Z,35.80
2023-02-08T05:02:16.850Z,37.40
2023-02-08T05:03:16.839Z,36.40
2023-02-08T05:04:16.842Z,36.70
2023-02-08T05:05:16.830Z,37.00
2023-02-08T05:06:16.810Z,36.80
2023-02-08T05:07:16.797Z,35.20
2023-02-08T05:08:16.769Z,36.30
2023-02-08T05:09:16.779Z,35.60
2023-02-08T05:10:16.742Z,34.60
2023-02-08T05:11:16.737Z,36.60
2023-02-08T05:12:16.734Z,38.70
2023-02-08T05:13:16.720Z,37.20
2023-02-08T05:14:16.719Z,38.10
2023-02-08T05:15:16.695Z,36.60
2023-02-08T05:16:16.727Z,37.60
2023-02-08T05:17:16.666Z,35.60
2023-02-08T05:18:16.651Z,38.20
2023-02-08T05:19:16.629Z,37.80
2023-02-08T05:20:16.629Z,38.80
2023-02-08T05:21:16.624Z,37.30
2023-02-08T05:22:16.605Z,36.60
2023-02-08T05:23:16.580Z,36.60
2023-02-08T05:24:16.585Z,37.40
2023-02-08T05:25:16.581Z,39.50
2023-02-08T05:26:16.542Z,37.50
2023-02-08T05:27:16.530Z,37.20
2023-02-08T05:28:16.616Z,38.10
2023-02-08T05:29:16.532Z,39.10
2023-02-08T05:30:16.523Z,36.50
2023-02-08T05:31:16.560Z,37.10
2023-02-08T05:32:16.469Z,38.50
2023-02-08T05:33:16.495Z,37.50
2023-02-08T05:34:16.480Z,36.70
2023-02-08T05:35:16.442Z,37.70
2023-02-08T05:36:16.440Z,35.90
2023-02-08T05:37:16.405Z,36.50
2023-02-08T05:38:16.399Z,36.90
2023-02-08T05:39:16.376Z,35.90
2023-02-08T05:40:16.370Z,35.20
2023-02-08T05:41:16.354Z,36.30
2023-02-08T05:42:16.354Z,40.10
2023-02-08T05:43:16.389Z,37.10
2023-02-08T05:44:16.323Z,38.60
2023-02-08T05:45:16.325Z,37.80
2023-02-08T05:46:16.383Z,38.30
2023-02-08T05:47:16.315Z,35.80
2023-02-08T05:48:16.274Z,36.10
2023-02-08T05:49:16.255Z,38.50
2023-02-08T05:50:16.258Z,36.40
2023-02-08T05:51:16.237Z,38.60
2023-02-08T05:52:16.229Z,36.80
2023-02-08T05:53:16.211Z,38.00
2023-02-08T05:54:16.202Z,41.00
2023-02-08T05:55:16.204Z,38.20
2023-02-08T05:56:16.196Z,37.40
2023-02-08T05:57:16.165Z,37.10
2023-02-08T05:58:16.150Z,37.10
2023-02-08T05:59:16.157Z,36.60
2023-02-08T06:00:16.152Z,35.50
2023-02-08T06:01:16.110Z,35.40
2023-02-08T06:02:16.168Z,36.70
2023-02-08T06:03:16.153Z,39.20
2023-02-08T06:04:16.164Z,40.20
2023-02-08T06:05:16.084Z,37.30
2023-02-08T06:06:16.052Z,37.90
2023-02-08T06:07:16.047Z,36.30
2023-02-08T06:08:16.032Z,37.40
2023-02-08T06:09:16.010Z,37.60
2023-02-08T06:10:16.009Z,37.60
2023-02-08T06:11:16.002Z,35.90
2023-02-08T06:12:15.999Z,35.60
2023-02-08T06:13:15.986Z,36.90
2023-02-08T06:14:15.973Z,37.80
2023-02-08T06:15:15.952Z,36.50
2023-02-08T06:16:17.753Z,36.20
2023-02-08T06:17:15.915Z,36.70
2023-02-08T06:18:15.920Z,39.60
2023-02-08T06:19:15.889Z,37.60
2023-02-08T06:20:15.878Z,37.70
2023-02-08T06:21:15.898Z,36.70
2023-02-08T06:22:15.901Z,37.50
2023-02-08T06:23:15.859Z,37.10
2023-02-08T06:24:15.827Z,37.00
2023-02-08T06:25:15.827Z,37.70
2023-02-08T06:26:15.828Z,37.50
2023-02-08T06:27:15.786Z,37.00
2023-02-08T06:28:15.823Z,37.40
2023-02-08T06:29:15.784Z,36.60
2023-02-08T06:30:15.780Z,37.00
2023-02-08T06:31:15.797Z,38.40
2023-02-08T06:32:15.849Z,36.90
2023-02-08T06:33:15.944Z,37.10
2023-02-08T06:34:15.709Z,37.60
2023-02-08T06:35:15.712Z,37.90
2023-02-08T06:36:15.710Z,37.80
2023-02-08T06:37:15.681Z,38.60
2023-02-08T06:38:15.678Z,36.50
2023-02-08T06:39:15.675Z,37.60
2023-02-08T06:40:15.650Z,38.00
2023-02-08T06:41:15.630Z,42.10
2023-02-08T06:42:15.640Z,37.80
2023-02-08T06:43:15.621Z,39.80
2023-02-08T06:44:15.614Z,38.30
2023-02-08T06:45:15.608Z,38.80
2023-02-08T06:46:22.638Z,37.00
2023-02-08T06:47:15.599Z,37.60
2023-02-08T06:48:15.565Z,41.30
2023-02-08T06:49:15.544Z,38.30
2023-02-08T06:50:15.613Z,38.50
2023-02-08T06:51:15.536Z,37.70
2023-02-08T06:52:15.517Z,37.20
2023-02-08T06:53:15.488Z,38.00
2023-02-08T06:54:15.500Z,36.10
2023-02-08T06:55:15.468Z,36.20
2023-02-08T06:56:15.532Z,40.20
2023-02-08T06:57:15.430Z,39.80
2023-02-08T06:58:15.429Z,35.90
2023-02-08T06:59:15.435Z,39.60
2023-02-08T07:00:15.417Z,39.00
2023-02-08T07:01:15.460Z,38.50
2023-02-08T07:02:15.407Z,38.20
2023-02-08T07:03:15.371Z,37.80
2023-02-08T07:04:15.393Z,37.60
2023-02-08T07:05:15.356Z,36.20
2023-02-08T07:06:15.331Z,37.10
2023-02-08T07:07:15.322Z,37.90
2023-02-08T07:08:15.327Z,36.20
2023-02-08T07:09:26.401Z,37.80
2023-02-08T07:10:15.290Z,37.80
2023-02-08T07:11:15.279Z,37.30
2023-02-08T07:12:15.275Z,37.30
2023-02-08T07:13:15.250Z,37.70
2023-02-08T07:14:15.348Z,36.80
2023-02-08T07:15:15.258Z,36.90
2023-02-08T07:16:15.249Z,36.50
2023-02-08T07:17:15.217Z,36.80
2023-02-08T07:18:15.196Z,37.80
2023-02-08T07:19:15.175Z,38.10
2023-02-08T07:20:15.171Z,38.40
2023-02-08T07:21:15.156Z,37.80
2023-02-08T07:22:15.133Z,36.80
2023-02-08T07:23:15.148Z,37.70
2023-02-08T07:24:15.121Z,36.20
2023-02-08T07:25:15.127Z,37.10
2023-02-08T07:26:15.189Z,36.90
2023-02-08T07:27:15.067Z,38.80
2023-02-08T07:28:15.123Z,36.10
2023-02-08T07:29:15.037Z,35.90
2023-02-08T07:30:15.045Z,35.60
2023-02-08T07:31:15.030Z,37.60
2023-02-08T07:32:15.018Z,38.50
2023-02-08T07:33:15.009Z,36.30
2023-02-08T07:34:14.984Z,38.40
2023-02-08T07:35:15.044Z,34.90
2023-02-08T07:36:14.969Z,36.30
2023-02-08T07:37:14.972Z,36.60
2023-02-08T07:38:14.953Z,35.80
2023-02-08T07:39:15.680Z,36.80
2023-02-08T07:40:14.933Z,37.60
2023-02-08T07:41:14.914Z,36.30
2023-02-08T07:42:14.901Z,35.30
2023-02-08T07:43:14.882Z,36.60
2023-02-08T07:44:14.881Z,36.40
2023-02-08T07:45:14.863Z,37.50
2023-02-08T07:46:14.925Z,36.10
2023-02-08T07:47:14.857Z,36.30
2023-02-08T07:48:14.810Z,37.90
2023-02-08T07:49:14.817Z,38.10
2023-02-08T07:50:14.812Z,36.40
2023-02-08T07:51:14.776Z,37.40
2023-02-08T07:52:14.790Z,37.00
2023-02-08T07:53:14.772Z,36.70
2023-02-08T07:54:14.750Z,38.90
2023-02-08T07:55:14.727Z,36.50
2023-02-08T07:56:14.734Z,36.60
2023-02-08T07:57:14.717Z,37.20
2023-02-08T07:58:14.687Z,36.10
2023-02-08T07:59:14.701Z,35.90
2023-02-08T08:00:14.686Z,36.00
2023-02-08T08:01:22.291Z,35.50
2023-02-08T08:02:15.651Z,35.00
2023-02-08T08:03:14.643Z,38.40
2023-02-08T08:04:14.678Z,35.90
2023-02-08T08:05:14.611Z,35.60
2023-02-08T08:06:14.601Z,38.10
2023-02-08T08:07:14.577Z,35.40
2023-02-08T08:08:14.566Z,36.10
2023-02-08T08:09:14.571Z,35.70
2023-02-08T08:10:14.558Z,35.50
2023-02-08T08:11:14.545Z,35.10
2023-02-08T08:12:14.517Z,35.30
2023-02-08T08:13:14.537Z,35.30
2023-02-08T08:14:14.486Z,35.70
2023-02-08T08:15:14.476Z,35.10
2023-02-08T08:16:14.491Z,33.90
2023-02-08T08:17:14.472Z,34.70
2023-02-08T08:18:14.457Z,33.80
2023-02-08T08:19:14.451Z,35.90
2023-02-08T08:20:14.432Z,34.50
2023-02-08T08:21:14.423Z,35.90
2023-02-08T08:22:14.401Z,35.40
2023-02-08T08:23:14.411Z,34.60
2023-02-08T08:24:14.378Z,34.40
2023-02-08T08:25:14.355Z,34.10
2023-02-08T08:26:14.360Z,33.60
2023-02-08T08:27:14.328Z,34.70
2023-02-08T08:28:14.401Z,36.80
2023-02-08T08:29:14.326Z,34.90
2023-02-08T08:30:14.309Z,34.80
2023-02-08T08:31:14.442Z,35.50
2023-02-08T08:32:14.282Z,34.90
2023-02-08T08:33:14.269Z,35.30
2023-02-08T08:34:14.266Z,33.60
2023-02-08T08:35:14.230Z,34.80
2023-02-08T08:36:14.229Z,33.90
2023-02-08T08:37:14.220Z,34.10
2023-02-08T08:38:14.189Z,34.60
2023-02-08T08:39:14.218Z,33.80
2023-02-08T08:40:14.204Z,33.90
2023-02-08T08:41:14.156Z,33.70
2023-02-08T08:42:14.137Z,34.30
2023-02-08T08:43:14.156Z,34.50
2023-02-08T08:44:14.113Z,35.30
2023-02-08T08:45:14.150Z,35.00
2023-02-08T08:46:14.120Z,35.40
2023-02-08T08:47:14.117Z,33.70
2023-02-08T08:48:14.078Z,34.30
2023-02-08T08:49:14.136Z,33.60
2023-02-08T08:50:14.097Z,36.70
2023-02-08T08:51:14.088Z,34.10
2023-02-08T08:52:14.043Z,34.50
2023-02-08T08:53:14.083Z,35.30
2023-02-08T08:54:14.013Z,34.00
2023-02-08T08:55:14.070Z,34.10
2023-02-08T08:56:13.987Z,33.60
2023-02-08T08:57:13.997Z,34.10
2023-02-08T08:58:13.959Z,35.30
2023-02-08T08:59:13.946Z,34.30
2023-02-08T09:00:13.952Z,34.20
2023-02-08T09:01:13.926Z,33.30
2023-02-08T09:02:13.916Z,33.60
2023-02-08T09:03:13.942Z,34.00
2023-02-08T09:04:13.885Z,35.40
2023-02-08T09:05:13.910Z,33.90
2023-02-08T09:06:13.864Z,34.20
2023-02-08T09:07:13.844Z,33.30
2023-02-08T09:08:13.877Z,35.10
2023-02-08T09:09:13.824Z,33.70
2023-02-08T09:10:13.794Z,33.30
2023-02-08T09:11:13.811Z,33.70
2023-02-08T09:12:13.768Z,34.30
2023-02-08T09:13:13.826Z,34.60
2023-02-08T09:14:13.750Z,35.60
2023-02-08T09:15:13.758Z,35.90
2023-02-08T09:16:13.883Z,35.80
2023-02-08T09:17:13.719Z,36.70
2023-02-08T09:18:13.697Z,34.00
2023-02-08T09:19:13.684Z,33.50
2023-02-08T09:20:13.694Z,34.40
2023-02-08T09:21:13.656Z,33.60
2023-02-08T09:22:13.669Z,34.70
2023-02-08T09:23:13.660Z,35.40
2023-02-08T09:24:13.637Z,33.80
2023-02-08T09:25:13.634Z,34.60
2023-02-08T09:26:13.610Z,34.80
2023-02-08T09:27:13.605Z,33.00
2023-02-08T09:28:13.623Z,34.20
2023-02-08T09:29:13.568Z,33.70
2023-02-08T09:30:13.550Z,33.70
2023-02-08T09:31:13.630Z,34.50
2023-02-08T09:32:13.624Z,36.80
2023-02-08T09:33:13.515Z,33.90
2023-02-08T09:34:13.511Z,34.10
2023-02-08T09:35:13.521Z,34.50
2023-02-08T09:36:13.483Z,33.10
2023-02-08T09:37:13.470Z,35.60
2023-02-08T09:38:13.460Z,35.60
2023-02-08T09:39:13.429Z,36.20
2023-02-08T09:40:13.424Z,35.90
2023-02-08T09:41:13.422Z,34.50
2023-02-08T09:42:13.416Z,33.40
2023-02-08T09:43:13.417Z,35.00
2023-02-08T09:44:13.381Z,33.60
2023-02-08T09:45:13.358Z,33.60
2023-02-08T09:46:13.358Z,33.90
2023-02-08T09:47:13.338Z,34.50
2023-02-08T09:48:13.344Z,33.50
2023-02-08T09:49:13.319Z,32.80
2023-02-08T09:50:13.311Z,32.30
2023-02-08T09:51:13.302Z,33.30
2023-02-08T09:52:13.277Z,34.10
2023-02-08T09:53:13.274Z,34.10
2023-02-08T09:54:13.271Z,33.90
2023-02-08T09:55:13.284Z,33.70
2023-02-08T09:56:13.232Z,34.20
2023-02-08T09:57:13.212Z,35.40
2023-02-08T09:58:13.200Z,33.90
2023-02-08T09:59:13.196Z,33.20
2023-02-08T10:00:13.169Z,35.60
2023-02-08T10:01:13.278Z,34.40
2023-02-08T10:02:13.140Z,35.50
2023-02-08T10:03:13.246Z,33.00
2023-02-08T10:04:13.135Z,34.30
2023-02-08T10:05:13.115Z,34.30
2023-02-08T10:06:13.100Z,35.80
2023-02-08T10:07:13.120Z,34.60
2023-02-08T10:08:13.077Z,34.30
2023-02-08T10:09:13.078Z,33.00
2023-02-08T10:10:13.065Z,33.90
2023-02-08T10:11:13.039Z,33.40
2023-02-08T10:12:13.035Z,33.00
2023-02-08T10:13:13.022Z,34.40
2023-02-08T10:14:13.006Z,33.50
2023-02-08T10:15:12.995Z,34.90
2023-02-08T10:16:12.995Z,34.20
2023-02-08T10:17:12.972Z,33.90
2023-02-08T10:18:12.977Z,34.10
2023-02-08T10:19:12.953Z,31.70
2023-02-08T10:20:13.697Z,33.10
2023-02-08T10:21:12.918Z,35.80
2023-02-08T10:22:12.924Z,31.90
2023-02-08T10:23:12.920Z,32.30
2023-02-08T10:24:12.885Z,34.50
2023-02-08T10:25:12.857Z,32.40
2023-02-08T10:26:12.864Z,33.30
2023-02-08T10:27:12.868Z,32.60
2023-02-08T10:28:12.872Z,33.00
2023-02-08T10:29:12.847Z,32.50
2023-02-08T10:30:12.823Z,32.60
2023-02-08T10:31:12.928Z,31.30
2023-02-08T10:32:12.797Z,33.00
2023-02-08T10:33:12.772Z,34.00
2023-02-08T10:34:12.798Z,33.10
2023-02-08T10:35:12.752Z,32.70
2023-02-08T10:36:12.734Z,33.30
2023-02-08T10:37:12.731Z,32.90
2023-02-08T10:38:12.710Z,33.60
2023-02-08T10:39:12.687Z,33.40
2023-02-08T10:40:12.679Z,32.50
2023-02-08T10:41:12.656Z,31.80
2023-02-08T10:42:12.667Z,34.10
2023-02-08T10:43:12.638Z,32.40
2023-02-08T10:44:12.643Z,32.60
2023-02-08T10:45:23.632Z,32.00
2023-02-08T10:46:13.623Z,33.20
2023-02-08T10:47:12.589Z,33.30
2023-02-08T10:48:12.578Z,34.30
2023-02-08T10:49:12.589Z,34.10
2023-02-08T10:50:12.555Z,33.60
2023-02-08T10:51:12.534Z,33.80
2023-02-08T10:52:12.581Z,32.50
2023-02-08T10:53:12.528Z,31.40
2023-02-08T10:54:12.485Z,32.30
2023-02-08T10:55:12.497Z,32.80
2023-02-08T10:56:12.478Z,32.40
2023-02-08T10:57:12.469Z,33.00
2023-02-08T10:58:12.448Z,31.60
2023-02-08T10:59:12.452Z,32.20
2023-02-08T11:00:12.429Z,31.50
2023-02-08T11:01:12.447Z,32.00
2023-02-08T11:02:12.407Z,33.80
2023-02-08T11:03:12.431Z,33.30
2023-02-08T11:04:12.426Z,32.50
2023-02-08T11:05:12.361Z,32.70
2023-02-08T11:06:12.343Z,30.40
2023-02-08T11:07:12.332Z,33.70
2023-02-08T11:08:12.336Z,31.80
2023-02-08T11:09:12.301Z,31.30
2023-02-08T11:10:12.292Z,32.00
2023-02-08T11:11:12.273Z,32.60
2023-02-08T11:12:12.260Z,31.70
2023-02-08T11:13:12.294Z,31.10
2023-02-08T11:14:12.255Z,30.90
2023-02-08T11:15:12.247Z,30.80
2023-02-08T11:16:12.314Z,31.60
2023-02-08T11:17:12.221Z,29.80
2023-02-08T11:18:12.190Z,30.90
2023-02-08T11:19:12.196Z,30.70
2023-02-08T11:20:12.163Z,31.20
2023-02-08T11:21:12.262Z,30.50
2023-02-08T11:22:12.174Z,31.50
2023-02-08T11:23:12.153Z,30.20
2023-02-08T11:24:12.115Z,31.50
2023-02-08T11:25:12.108Z,32.40
2023-02-08T11:26:12.083Z,29.80
2023-02-08T11:27:12.089Z,31.60
2023-02-08T11:28:12.122Z,30.50
2023-02-08T11:29:12.076Z,35.60
2023-02-08T11:30:12.034Z,29.90
2023-02-08T11:31:14.062Z,31.50
2023-02-08T11:32:12.023Z,30.80
2023-02-08T11:33:12.018Z,33.50
2023-02-08T11:34:11.994Z,31.00
2023-02-08T11:35:11.972Z,30.40
2023-02-08T11:36:11.988Z,29.70
2023-02-08T11:37:12.000Z,29.80
2023-02-08T11:38:11.935Z,31.00
2023-02-08T11:39:11.935Z,29.80
2023-02-08T11:40:11.928Z,31.30
2023-02-08T11:41:11.910Z,31.20
2023-02-08T11:42:11.892Z,31.70
2023-02-08T11:43:11.885Z,31.60
2023-02-08T11:44:11.877Z,29.70
2023-02-08T11:45:11.854Z,31.50
2023-02-08T11:46:11.882Z,30.80
2023-02-08T11:47:11.824Z,30.20
2023-02-08T11:48:11.839Z,29.80
2023-02-08T11:49:11.804Z,32.00
2023-02-08T11:50:11.809Z,29.80
2023-02-08T11:51:11.790Z,30.90
2023-02-08T11:52:11.764Z,33.10
2023-02-08T11:53:11.767Z,32.40
2023-02-08T11:54:11.743Z,31.00
2023-02-08T11:55:11.746Z,31.90
2023-02-08T11:56:11.731Z,31.80
2023-02-08T11:57:11.728Z,28.60
2023-02-08T11:58:11.708Z,30.90
2023-02-08T11:59:11.713Z,29.80
2023-02-08T12:00:11.684Z,28.30
2023-02-08T12:01:11.669Z,29.40
2023-02-08T12:02:11.662Z,31.10
2023-02-08T12:03:11.635Z,31.20
2023-02-08T12:04:11.649Z,31.20
2023-02-08T12:05:11.614Z,30.90
2023-02-08T12:06:11.618Z,30.70
2023-02-08T12:07:11.584Z,30.90
2023-02-08T12:08:11.564Z,29.20
2023-02-08T12:09:11.577Z,28.90
2023-02-08T12:10:11.552Z,28.50
2023-02-08T12:11:11.561Z,29.40
2023-02-08T12:12:11.520Z,30.40
2023-02-08T12:13:11.513Z,28.60
2023-02-08T12:14:11.508Z,32.70
2023-02-08T12:15:11.496Z,29.70
2023-02-08T12:16:11.492Z,28.80
2023-02-08T12:17:11.468Z,27.80
2023-02-08T12:18:11.449Z,29.20
2023-02-08T12:19:11.453Z,28.10
2023-02-08T12:20:11.416Z,30.60
2023-02-08T12:21:11.549Z,30.80
2023-02-08T12:22:11.383Z,30.50
2023-02-08T12:23:11.376Z,29.30
2023-02-08T12:24:11.387Z,29.80
2023-02-08T12:25:11.344Z,29.60
2023-02-08T12:26:11.375Z,29.00
2023-02-08T12:27:11.335Z,28.50
2023-02-08T12:28:11.424Z,29.40
2023-02-08T12:29:11.482Z,30.80
2023-02-08T12:30:11.308Z,30.00
2023-02-08T12:31:11.345Z,29.30
2023-02-08T12:32:11.270Z,29.00
2023-02-08T12:33:11.258Z,29.10
2023-02-08T12:34:11.244Z,32.70
2023-02-08T12:35:11.235Z,29.10
2023-02-08T12:36:11.591Z,31.50
2023-02-08T12:37:11.208Z,30.30
2023-02-08T12:38:11.214Z,28.90
2023-02-08T12:39:18.925Z,28.70
2023-02-08T12:40:12.270Z,31.20
2023-02-08T12:41:11.140Z,30.50
2023-02-08T12:42:11.160Z,29.30
2023-02-08T12:43:11.128Z,32.70
2023-02-08T12:44:11.135Z,31.60
2023-02-08T12:45:11.169Z,30.70
2023-02-08T12:46:11.156Z,31.30
2023-02-08T12:47:19.115Z,30.20
2023-02-08T12:48:11.157Z,27.30
2023-02-08T12:49:11.071Z,27.80
2023-02-08T12:50:11.063Z,29.10
2023-02-08T12:51:11.021Z,29.70
2023-02-08T12:52:11.017Z,28.30